Aérodrome :
LOGIN :

S'inscrire | Disclaimer

   EN    FR    IT 

 










Légende :    VFR   VFR Marginal   IFR   IFR Intensif   IFR Très Intensif
Visi : 
Plafond : 
>= 8 km
>= 3000ft
5 à 8 km
1000 à 3000 ft
1500m à 5 km
500 à 1000 ft
800 à 1500m
200 à 500 ft
< 800m
< 200 ft
Symboles :   Orages  Brouillard  Fortes neiges  Fortes précipitations  Vent > 20 kt
SIGMETs :   Divers  Orages  Givrage  Turbulence  Onde Orograph.  Cendres Volcan.







- Altitude de l'aérodrome : 72 ft
- Code IATA : UDE


EHVK - Volkel Airbase

DERNIER METAR :
  • 221325Z AUTO 25010KT 190V300 9999 SCT390 26/10 Q1024 BLU 22008KT CAVOK

METARs EXPIRÉS :
  • 221255Z AUTO 22011KT 190V280 9999 OVC370 25/10 Q1025 BLU 22008KT CAVOK
  • 221225Z AUTO 22012KT 200V280 9999 OVC380 25/09 Q1025 BLU 22008KT CAVOK
  • 221155Z AUTO 22005KT 190V280 9999 NCD 24/11 Q1025 BLU 22008KT CAVOK
  • 221125Z AUTO 24006KT 190V310 9999 NCD 25/12 Q1025 BLU 22008KT CAVOK
  • 221055Z AUTO 22007KT 180V280 9999 NCD 24/12 Q1025 BLU 21005KT CAVOK

TAF TAF EHVK
Valide du 22 à 13h jusqu'au 23 à 01h UTC


221251Z 2213/2301 24006KT CAVOK
BECMG 2215/2218 31005KT
BECMG 2218/2221 VRB02KT
Pas de NOTAMs connus pour ce terrain.



MET'MAP, la Météo Aéronautique d'un coup d'oeil ! - Copyright ORBIFLY Décembre 2007 - Disclaimer

ORBIFLY MET'MAP TEAM :

Programmation & Développement : Alexandra Zaïnal
Conception & Développement : Baudouin d'Aumeries
Co-Programmation & Développement : Marc-Olivier Méhu
Soutien technique & logistique : Manuel Goepfert

Contact : metmap@orbifly.com




SOURCES & CREDITS :

   NOAA